Southbury, Connecticut
Current Conditions -  °F | °C
As of 2:50 PM on Thursday 23 Oct 2014 (Local Time) from KOXC Reporting Station
Drizzle Drizzle  
Wind Chill: 44°   Ceiling: 700
Heat Index: 48°   Visibility: 4mi
Dew Point: 43°   Wind: 9mph
Humidity: 82%   Direction: 340°NNW
Pressure: 29.67"   Gusts: NA
Location:  41.48°N, 73.21°W
Report Text: KOXC 231850Z 34008KT 4SM -DZ BR OVC007 09/06 A2967
Loading
Personal Weather Stations






























Interactive Weather Map
Tropical Storm Tracking
New forecast layout! Learn more

10-Day Weather Forecast

Advertisements
Track Severe Weather on mobile